Waltonville, Illinois
Current Conditions -  °F | °C
As of 3:35 AM on Thursday 23 Oct 2014 (Local Time) from KMVN Reporting Station
Clear Clear  
Wind Chill: 34°   Ceiling: Unl
Heat Index: 34°   Visibility: 6mi
Dew Point: 28°   Wind: 0mph
Humidity: 81%   Direction: NA
Pressure: 30.22"   Gusts: NA
Location:  38.21°N, 89.04°W
Report Text: KMVN 230835Z AUTO 00000KT 6SM CLR 01/M02 A3022 RMK AO1
Loading
Personal Weather Stations






























Interactive Weather Map
Tropical Storm Tracking
New forecast layout! Learn more

10-Day Weather Forecast

Advertisements
Track Severe Weather on mobile